Weather History for KOJA - February, 2013

Change the Weather History Date:

Saturday, February 9, 2013

  Actual Average (KJWG) Record (KJWG)
Temperature  
Mean Temperature 42 °F -  
Max Temperature 51 °F 50 °F 79 °F (1976)
Min Temperature 35 °F 26 °F -1 °F (1979)
Degree Days  
Heating Degree Days 22    
Moisture  
Dew Point 40 °F    
Average Humidity 90    
Maximum Humidity 100    
Minimum Humidity 81    
Precipitation  
Precipitation 0.06 in - - ()
Sea Level Pressure  
Sea Level Pressure 29.86 in    
Wind  
Wind Speed 12 mph (SSE)    
Max Wind Speed 26 mph    
Max Gust Speed 34 mph    
Visibility 7 miles    
Events Rain    
Averages and records for this station are not official NWS values.
T = Trace of Precipitation, MM = Missing Value Source: NWS Daily Summary

Daily Weather History Graph

Daily Weather History Graph

Search for Another Location

Airport or City:

Trip Planner

Search our weather history database for the weather conditions in past years. The results will help you decide how hot, cold, wet, or windy it might be!

Date:

Astronomy

Feb. 09, 2013 Rise Set
Actual Time 7:27 AM CST 6:11 PM CST
Civil Twilight 7:00 AM CST 6:37 PM CST
Nautical Twilight 6:30 AM CST 7:07 PM CST
Astronomical Twilight 6:01 AM CST 7:37 PM CST
Moon 6:40 AM CST (2/9) 5:54 PM CST (2/9)
Length of Visible Light 11h 36m
Length of Day
10h 43m
Waning Crescent, 0% of the Moon is Illuminated
Feb 9
Waning Crescent
Feb 10
New
Feb 17
First Quarter
Feb 25
Full
Mar 4
Last Quarter

Hourly Weather History & Observations

Time (CST) Temp. Windchill Dew Point Humidity Pressure Visibility Wind Dir Wind Speed Gust Speed Precip Events Conditions
12:15 AM 37.4 °F 32.8 °F 32.0 °F 81% 30.10 in 10.0 mi SSE 5.8 mph - N/A   Clear
12:55 AM 35.6 °F 32.8 °F 32.0 °F 87% 30.09 in 10.0 mi SSE 3.5 mph - N/A   Clear
1:15 AM 35.6 °F 29.9 °F 32.0 °F 87% 30.08 in 10.0 mi SSE 6.9 mph - N/A   Clear
1:35 AM 35.6 °F 29.2 °F 32.0 °F 87% 30.07 in 10.0 mi SSE 8.1 mph - N/A   Clear
1:55 AM 37.4 °F 32.8 °F 32.0 °F 81% 30.07 in 10.0 mi SSE 5.8 mph - N/A   Clear
2:15 AM 37.4 °F 30.8 °F 32.0 °F 81% 30.06 in 10.0 mi SSE 9.2 mph - N/A   Clear
2:35 AM 37.4 °F 32.1 °F 32.0 °F 81% 30.05 in 10.0 mi SSE 6.9 mph - N/A   Clear
2:55 AM 37.4 °F 32.8 °F 32.0 °F 81% 30.03 in 10.0 mi SSE 5.8 mph - N/A   Clear
3:15 AM 37.4 °F 32.1 °F 32.0 °F 81% 30.02 in 10.0 mi SSE 6.9 mph - N/A   Clear
3:35 AM 37.4 °F 31.4 °F 32.0 °F 81% 30.02 in 10.0 mi SSE 8.1 mph - N/A   Clear
3:55 AM 37.4 °F 30.8 °F 32.0 °F 81% 30.02 in 10.0 mi SSE 9.2 mph - N/A   Clear
4:15 AM 37.4 °F 31.4 °F 32.0 °F 81% 30.01 in 10.0 mi SSE 8.1 mph - N/A   Clear
4:35 AM 37.4 °F 31.4 °F 32.0 °F 81% 30.01 in 10.0 mi SSE 8.1 mph - N/A   Clear
4:55 AM 37.4 °F 33.8 °F 32.0 °F 81% 30.01 in 10.0 mi SSE 4.6 mph - N/A   Clear
5:15 AM 37.4 °F 32.8 °F 32.0 °F 81% 30.01 in 10.0 mi SSE 5.8 mph - N/A   Clear
5:35 AM 37.4 °F 32.8 °F 32.0 °F 81% 30.00 in 10.0 mi SSE 5.8 mph - N/A   Clear
5:55 AM 35.6 °F 30.7 °F 32.0 °F 87% 30.00 in 10.0 mi SSE 5.8 mph - N/A   Clear
6:15 AM 35.6 °F 31.7 °F 32.0 °F 87% 30.00 in 10.0 mi SSE 4.6 mph - N/A   Clear
6:35 AM 35.6 °F 30.7 °F 32.0 °F 87% 29.99 in 10.0 mi SE 5.8 mph - N/A   Clear
6:55 AM 37.4 °F 30.8 °F 33.8 °F 87% 29.99 in 10.0 mi South 9.2 mph - N/A   Clear
7:15 AM 41.0 °F 34.7 °F 35.6 °F 81% 29.99 in 10.0 mi SSE 10.4 mph - N/A   Scattered Clouds
7:35 AM 41.0 °F 33.9 °F 37.4 °F 87% 29.99 in 10.0 mi SSE 12.7 mph - N/A   Clear
7:55 AM 42.8 °F 35.4 °F 37.4 °F 81% 29.98 in 10.0 mi SSE 15.0 mph 18.4 mph N/A   Clear
8:15 AM 42.8 °F 35.4 °F 39.2 °F 87% 29.98 in 10.0 mi SSE 15.0 mph 18.4 mph N/A   Scattered Clouds
8:35 AM 42.8 °F 34.3 °F 39.2 °F 87% 29.97 in 10.0 mi SSE 19.6 mph 25.3 mph N/A   Mostly Cloudy
8:55 AM 42.8 °F 35.8 °F 37.4 °F 81% 29.97 in 10.0 mi SE 13.8 mph - N/A   Scattered Clouds
9:15 AM 42.8 °F 36.6 °F 39.2 °F 87% 29.97 in 10.0 mi SE 11.5 mph - N/A   Mostly Cloudy
9:55 AM 44.6 °F 37.4 °F 41.0 °F 87% 29.96 in 10.0 mi SSE 16.1 mph 23.0 mph N/A   Overcast
10:15 AM 44.6 °F 36.9 °F 41.0 °F 87% 29.97 in 10.0 mi SSE 18.4 mph 21.9 mph N/A   Overcast
10:35 AM 44.6 °F 36.9 °F 42.8 °F 93% 29.96 in 10.0 mi SSE 18.4 mph 26.5 mph N/A   Overcast
10:55 AM 46.4 °F 39.2 °F 42.8 °F 87% 29.95 in 10.0 mi SSE 18.4 mph 27.6 mph N/A   Overcast
11:15 AM 46.4 °F 38.5 °F 42.8 °F 87% 29.94 in 10.0 mi SSE 21.9 mph 28.8 mph N/A   Overcast
11:35 AM 46.4 °F 39.5 °F 42.8 °F 87% 29.93 in 10.0 mi SSE 17.3 mph 24.2 mph N/A   Overcast
11:55 AM 46.4 °F 38.7 °F 42.8 °F 87% 29.92 in 10.0 mi SSE 20.7 mph 25.3 mph N/A   Overcast
12:15 PM 46.4 °F 39.8 °F 42.8 °F 87% 29.91 in 10.0 mi SSE 16.1 mph 29.9 mph N/A   Overcast
12:35 PM 46.4 °F 39.8 °F 42.8 °F 87% 29.89 in 10.0 mi SSE 16.1 mph 23.0 mph N/A   Overcast
12:55 PM 46.4 °F 38.7 °F 42.8 °F 87% 29.87 in 10.0 mi SSE 20.7 mph 28.8 mph N/A   Overcast
1:35 PM 44.6 °F 36.9 °F 42.8 °F 93% 29.84 in 10.0 mi SSE 18.4 mph 29.9 mph N/A   Overcast
1:55 PM 44.6 °F 35.7 °F 41.0 °F 87% 29.82 in 10.0 mi SSE 24.2 mph 28.8 mph N/A   Overcast
2:15 PM 44.6 °F 36.9 °F 41.0 °F 87% 29.80 in 7.0 mi SE 18.4 mph 25.3 mph N/A   Overcast
2:35 PM 44.6 °F 36.9 °F 41.0 °F 87% 29.79 in 7.0 mi SSE 18.4 mph 28.8 mph N/A   Overcast
2:55 PM 44.6 °F 37.4 °F 42.8 °F 93% 29.79 in 7.0 mi SSE 16.1 mph 23.0 mph N/A   Overcast
3:15 PM 44.6 °F 36.9 °F 42.8 °F 93% 29.78 in 7.0 mi SE 18.4 mph 24.2 mph N/A   Overcast
3:35 PM 44.6 °F 37.4 °F 42.8 °F 93% 29.77 in 4.0 mi SSE 16.1 mph 26.5 mph N/A   Overcast
3:55 PM 44.6 °F 36.9 °F 42.8 °F 93% 29.75 in 2.0 mi SSE 18.4 mph 26.5 mph N/A Rain Light Rain
4:15 PM 44.6 °F 36.6 °F 42.8 °F 93% 29.74 in 4.0 mi SSE 19.6 mph 26.5 mph N/A   Overcast
4:35 PM 44.6 °F 38.1 °F 42.8 °F 93% 29.75 in 4.0 mi SSE 13.8 mph 23.0 mph N/A   Overcast
4:55 PM 44.6 °F 38.1 °F 42.8 °F 93% 29.73 in 3.0 mi SSE 13.8 mph 20.7 mph N/A   Overcast
5:15 PM 44.6 °F 37.2 °F 42.8 °F 93% 29.72 in 2.5 mi SSE 17.3 mph 23.0 mph N/A   Overcast
5:35 PM 44.6 °F 38.1 °F 42.8 °F 93% 29.71 in 2.5 mi SSE 13.8 mph 20.7 mph N/A   Overcast
5:55 PM 44.6 °F 38.1 °F 44.6 °F 100% 29.71 in 2.5 mi SSE 13.8 mph 24.2 mph N/A   Overcast
6:15 PM 44.6 °F 37.2 °F 44.6 °F 100% 29.71 in 3.0 mi SSE 17.3 mph 25.3 mph N/A   Overcast
6:35 PM 44.6 °F 38.1 °F 44.6 °F 100% 29.71 in 3.0 mi SSE 13.8 mph 26.5 mph N/A   Overcast
6:55 PM 44.6 °F 36.6 °F 44.6 °F 100% 29.71 in 2.5 mi SSE 19.6 mph 24.2 mph N/A   Overcast
7:15 PM 44.6 °F 36.6 °F 44.6 °F 100% 29.70 in 2.5 mi SSE 19.6 mph 24.2 mph N/A   Overcast
7:35 PM 44.6 °F 36.1 °F 44.6 °F 100% 29.68 in 3.0 mi SSE 21.9 mph 31.1 mph N/A   Overcast
7:55 PM 44.6 °F 35.3 °F 44.6 °F 100% 29.67 in 2.5 mi SSE 26.5 mph 32.2 mph N/A   Overcast
8:15 PM 44.6 °F 35.7 °F 44.6 °F 100% 29.66 in 2.0 mi SSE 24.2 mph 34.5 mph N/A   Overcast
8:35 PM 44.6 °F 36.1 °F 44.6 °F 100% 29.64 in 1.5 mi SSE 21.9 mph 28.8 mph N/A   Overcast
8:55 PM 46.4 °F 38.1 °F 46.4 °F 100% 29.64 in 1.5 mi SSE 24.2 mph 31.1 mph N/A   Overcast
9:15 PM 46.4 °F 38.7 °F 46.4 °F 100% 29.63 in 1.5 mi SSE 20.7 mph 28.8 mph N/A   Overcast
9:35 PM 46.4 °F 38.1 °F 46.4 °F 100% 29.64 in 1.5 mi SSE 24.2 mph 32.2 mph N/A   Overcast
9:55 PM 46.4 °F 39.2 °F 46.4 °F 100% 29.65 in 1.5 mi SSE 18.4 mph 29.9 mph N/A Rain Light Rain
10:15 PM 48.2 °F - 48.2 °F 100% 29.68 in 2.5 mi South 17.3 mph 28.8 mph N/A Rain Light Rain
10:35 PM 48.2 °F - 48.2 °F 100% 29.66 in 2.5 mi South 13.8 mph - N/A Rain Light Rain
10:55 PM 48.2 °F - 48.2 °F 100% 29.66 in 3.0 mi SSE 16.1 mph - 0.01 in Rain Rain
11:15 PM 48.2 °F - 48.2 °F 100% 29.66 in 3.0 mi South 12.7 mph 20.7 mph 0.01 in Rain Light Rain
11:35 PM 50.0 °F - 48.2 °F 94% 29.68 in 4.0 mi SSW 13.8 mph 18.4 mph 0.04 in Rain Rain
11:55 PM 51.8 °F - 50.0 °F 94% 29.67 in 7.0 mi SSW 16.1 mph 21.9 mph 0.05 in Rain Light Rain